Terminal Aerodrome Forecast
Issued by NWS

Home | Current Version | Previous Version | Text Only | Print | Product List | Glossary Off
Versions: 1 2 3 4 5 6 7 8 9 10 11 12 13 14 15 16

355
FTUS43 KGRB 171137
TAFAUW
TAF
KAUW 171137Z 1712/1812 15011G18KT P6SM OVC012
      TEMPO 1712/1715 5SM -FZDZSN BKN008
     FM171500 16011G23KT 5SM -FZDZSN BR OVC010
     FM171700 16011G21KT P6SM -RA OVC010
     FM172100 17008KT 4SM -RA OVC003
     FM180100 32007KT 6SM -RASN OVC008
     FM180800 34009KT 6SM -RASN BR OVC012=

USA.gov is the U.S. government's official web portal to all federal, state and local government web resources and services.